sensor_id;sensor_type;location;lat;lon;timestamp;P1;durP1;ratioP1;P2;durP2;ratioP2
56997;SDS011;42890;44.244;22.530;2022-07-31T00:00:37;11.55;;;10.50;;
56997;SDS011;42890;44.244;22.530;2022-07-31T00:03:04;12.85;;;10.20;;
56997;SDS011;42890;44.244;22.530;2022-07-31T00:05:30;13.50;;;10.63;;
56997;SDS011;42890;44.244;22.530;2022-07-31T00:07:56;11.70;;;10.40;;
56997;SDS011;42890;44.244;22.530;2022-07-31T00:10:23;12.15;;;10.98;;
56997;SDS011;42890;44.244;22.530;2022-07-31T00:12:49;12.18;;;9.75;;
56997;SDS011;42890;44.244;22.530;2022-07-31T00:15:15;11.73;;;9.77;;
56997;SDS011;42890;44.244;22.530;2022-07-31T00:17:42;9.43;;;8.63;;
56997;SDS011;42890;44.244;22.530;2022-07-31T00:20:09;15.00;;;9.63;;
56997;SDS011;42890;44.244;22.530;2022-07-31T00:22:43;15.40;;;9.48;;
56997;SDS011;42890;44.244;22.530;2022-07-31T00:25:10;10.70;;;9.70;;
56997;SDS011;42890;44.244;22.530;2022-07-31T00:27:37;10.60;;;9.43;;
56997;SDS011;42890;44.244;22.530;2022-07-31T00:30:03;12.85;;;9.88;;
56997;SDS011;42890;44.244;22.530;2022-07-31T00:32:30;11.35;;;10.30;;
56997;SDS011;42890;44.244;22.530;2022-07-31T00:34:56;12.35;;;10.57;;
56997;SDS011;42890;44.244;22.530;2022-07-31T00:37:22;11.93;;;10.68;;
56997;SDS011;42890;44.244;22.530;2022-07-31T00:39:48;16.05;;;11.23;;
56997;SDS011;42890;44.244;22.530;2022-07-31T00:42:18;12.35;;;11.13;;
56997;SDS011;42890;44.244;22.530;2022-07-31T00:44:44;13.77;;;10.75;;
56997;SDS011;42890;44.244;22.530;2022-07-31T00:47:10;13.13;;;10.55;;
56997;SDS011;42890;44.244;22.530;2022-07-31T00:49:36;19.00;;;11.13;;
56997;SDS011;42890;44.244;22.530;2022-07-31T00:52:03;13.45;;;10.68;;
56997;SDS011;42890;44.244;22.530;2022-07-31T00:54:29;13.45;;;10.75;;
56997;SDS011;42890;44.244;22.530;2022-07-31T00:56:55;12.15;;;11.05;;
56997;SDS011;42890;44.244;22.530;2022-07-31T00:59:21;12.27;;;11.18;;
56997;SDS011;42890;44.244;22.530;2022-07-31T01:01:47;14.35;;;12.93;;
56997;SDS011;42890;44.244;22.530;2022-07-31T01:04:14;15.05;;;12.60;;
56997;SDS011;42890;44.244;22.530;2022-07-31T01:06:43;13.93;;;12.38;;
56997;SDS011;42890;44.244;22.530;2022-07-31T01:09:09;13.75;;;12.07;;
56997;SDS011;42890;44.244;22.530;2022-07-31T01:14:20;12.90;;;11.77;;
56997;SDS011;42890;44.244;22.530;2022-07-31T01:16:47;15.63;;;12.80;;
56997;SDS011;42890;44.244;22.530;2022-07-31T01:21:48;13.68;;;11.98;;
56997;SDS011;42890;44.244;22.530;2022-07-31T01:29:23;20.92;;;14.07;;
56997;SDS011;42890;44.244;22.530;2022-07-31T01:34:53;14.13;;;12.70;;
56997;SDS011;42890;44.244;22.530;2022-07-31T01:37:31;14.68;;;12.07;;
56997;SDS011;42890;44.244;22.530;2022-07-31T01:40:05;14.38;;;12.73;;
56997;SDS011;42890;44.244;22.530;2022-07-31T01:42:33;25.92;;;12.27;;
56997;SDS011;42890;44.244;22.530;2022-07-31T01:45:01;14.68;;;13.23;;
56997;SDS011;42890;44.244;22.530;2022-07-31T01:47:28;16.67;;;12.80;;
56997;SDS011;42890;44.244;22.530;2022-07-31T01:49:56;14.02;;;12.40;;
56997;SDS011;42890;44.244;22.530;2022-07-31T01:52:24;14.75;;;12.50;;
56997;SDS011;42890;44.244;22.530;2022-07-31T01:54:52;13.52;;;12.30;;
56997;SDS011;42890;44.244;22.530;2022-07-31T01:57:20;17.73;;;13.07;;
56997;SDS011;42890;44.244;22.530;2022-07-31T01:59:47;15.25;;;12.90;;
56997;SDS011;42890;44.244;22.530;2022-07-31T02:02:14;17.25;;;13.27;;
56997;SDS011;42890;44.244;22.530;2022-07-31T02:04:40;13.57;;;12.40;;
56997;SDS011;42890;44.244;22.530;2022-07-31T02:07:07;17.25;;;13.23;;
56997;SDS011;42890;44.244;22.530;2022-07-31T02:09:33;16.38;;;12.40;;
56997;SDS011;42890;44.244;22.530;2022-07-31T02:12:00;18.25;;;13.20;;
56997;SDS011;42890;44.244;22.530;2022-07-31T02:14:27;15.50;;;12.68;;
56997;SDS011;42890;44.244;22.530;2022-07-31T02:16:54;20.67;;;13.30;;
56997;SDS011;42890;44.244;22.530;2022-07-31T02:19:20;17.35;;;13.88;;
56997;SDS011;42890;44.244;22.530;2022-07-31T02:21:47;17.67;;;14.63;;
56997;SDS011;42890;44.244;22.530;2022-07-31T02:24:13;15.70;;;14.30;;
56997;SDS011;42890;44.244;22.530;2022-07-31T02:26:40;16.83;;;14.93;;
56997;SDS011;42890;44.244;22.530;2022-07-31T02:29:07;16.58;;;14.20;;
56997;SDS011;42890;44.244;22.530;2022-07-31T02:31:33;15.57;;;13.70;;
56997;SDS011;42890;44.244;22.530;2022-07-31T02:34:00;15.05;;;13.50;;
56997;SDS011;42890;44.244;22.530;2022-07-31T02:36:26;17.40;;;13.48;;
56997;SDS011;42890;44.244;22.530;2022-07-31T02:38:53;14.98;;;13.55;;
56997;SDS011;42890;44.244;22.530;2022-07-31T02:41:19;14.43;;;13.07;;
56997;SDS011;42890;44.244;22.530;2022-07-31T02:43:46;15.82;;;14.30;;
56997;SDS011;42890;44.244;22.530;2022-07-31T02:46:12;16.85;;;15.02;;
56997;SDS011;42890;44.244;22.530;2022-07-31T02:48:39;19.80;;;17.90;;
56997;SDS011;42890;44.244;22.530;2022-07-31T02:51:06;21.15;;;18.98;;
56997;SDS011;42890;44.244;22.530;2022-07-31T02:53:33;23.48;;;21.33;;
56997;SDS011;42890;44.244;22.530;2022-07-31T02:56:01;26.05;;;23.70;;
56997;SDS011;42890;44.244;22.530;2022-07-31T02:58:28;21.92;;;19.88;;
56997;SDS011;42890;44.244;22.530;2022-07-31T03:01:02;23.65;;;21.25;;
56997;SDS011;42890;44.244;22.530;2022-07-31T03:03:29;20.50;;;18.40;;
56997;SDS011;42890;44.244;22.530;2022-07-31T03:05:55;19.17;;;17.17;;
56997;SDS011;42890;44.244;22.530;2022-07-31T03:08:21;17.52;;;15.82;;
56997;SDS011;42890;44.244;22.530;2022-07-31T03:10:48;20.08;;;18.20;;
56997;SDS011;42890;44.244;22.530;2022-07-31T03:13:14;19.52;;;17.63;;
56997;SDS011;42890;44.244;22.530;2022-07-31T03:15:41;21.77;;;19.48;;
56997;SDS011;42890;44.244;22.530;2022-07-31T03:18:08;21.92;;;19.80;;
56997;SDS011;42890;44.244;22.530;2022-07-31T03:20:35;23.58;;;21.63;;
56997;SDS011;42890;44.244;22.530;2022-07-31T03:23:02;23.85;;;21.88;;
56997;SDS011;42890;44.244;22.530;2022-07-31T03:25:29;24.40;;;22.50;;
56997;SDS011;42890;44.244;22.530;2022-07-31T03:27:56;27.48;;;24.75;;
56997;SDS011;42890;44.244;22.530;2022-07-31T03:30:24;27.38;;;24.80;;
56997;SDS011;42890;44.244;22.530;2022-07-31T03:32:51;29.63;;;26.90;;
56997;SDS011;42890;44.244;22.530;2022-07-31T03:35:17;28.23;;;25.77;;
56997;SDS011;42890;44.244;22.530;2022-07-31T03:37:43;29.58;;;26.98;;
56997;SDS011;42890;44.244;22.530;2022-07-31T03:40:10;29.35;;;26.60;;
56997;SDS011;42890;44.244;22.530;2022-07-31T03:42:36;27.70;;;25.40;;
56997;SDS011;42890;44.244;22.530;2022-07-31T03:45:03;25.30;;;23.10;;
56997;SDS011;42890;44.244;22.530;2022-07-31T03:47:30;28.23;;;25.08;;
56997;SDS011;42890;44.244;22.530;2022-07-31T03:49:56;26.02;;;23.83;;
56997;SDS011;42890;44.244;22.530;2022-07-31T03:52:25;24.48;;;22.15;;
56997;SDS011;42890;44.244;22.530;2022-07-31T03:54:52;23.45;;;21.30;;
56997;SDS011;42890;44.244;22.530;2022-07-31T03:57:18;22.52;;;20.48;;
56997;SDS011;42890;44.244;22.530;2022-07-31T03:59:45;21.88;;;20.00;;
56997;SDS011;42890;44.244;22.530;2022-07-31T04:02:12;21.50;;;19.65;;
56997;SDS011;42890;44.244;22.530;2022-07-31T04:04:38;21.58;;;19.88;;
56997;SDS011;42890;44.244;22.530;2022-07-31T04:07:04;20.05;;;18.48;;
56997;SDS011;42890;44.244;22.530;2022-07-31T04:09:30;21.65;;;19.70;;
56997;SDS011;42890;44.244;22.530;2022-07-31T04:11:57;19.70;;;18.10;;
56997;SDS011;42890;44.244;22.530;2022-07-31T04:14:23;18.45;;;16.70;;
56997;SDS011;42890;44.244;22.530;2022-07-31T04:16:49;19.17;;;17.42;;
56997;SDS011;42890;44.244;22.530;2022-07-31T04:19:15;17.85;;;16.48;;
56997;SDS011;42890;44.244;22.530;2022-07-31T04:21:41;18.38;;;16.98;;
56997;SDS011;42890;44.244;22.530;2022-07-31T04:24:07;17.13;;;15.73;;
56997;SDS011;42890;44.244;22.530;2022-07-31T04:26:35;18.52;;;16.77;;
56997;SDS011;42890;44.244;22.530;2022-07-31T04:29:01;18.95;;;17.45;;
56997;SDS011;42890;44.244;22.530;2022-07-31T04:31:27;18.13;;;16.58;;
56997;SDS011;42890;44.244;22.530;2022-07-31T04:33:54;17.02;;;15.50;;
56997;SDS011;42890;44.244;22.530;2022-07-31T04:36:20;17.17;;;15.77;;
56997;SDS011;42890;44.244;22.530;2022-07-31T04:38:46;16.38;;;15.05;;
56997;SDS011;42890;44.244;22.530;2022-07-31T04:41:12;17.77;;;15.88;;
56997;SDS011;42890;44.244;22.530;2022-07-31T04:43:38;20.05;;;17.05;;
56997;SDS011;42890;44.244;22.530;2022-07-31T04:46:04;16.65;;;15.38;;
56997;SDS011;42890;44.244;22.530;2022-07-31T04:48:31;15.68;;;14.30;;
56997;SDS011;42890;44.244;22.530;2022-07-31T04:50:57;16.40;;;14.82;;
56997;SDS011;42890;44.244;22.530;2022-07-31T04:53:23;14.05;;;12.45;;
56997;SDS011;42890;44.244;22.530;2022-07-31T04:55:49;15.15;;;13.20;;
56997;SDS011;42890;44.244;22.530;2022-07-31T04:58:34;15.77;;;12.60;;
56997;SDS011;42890;44.244;22.530;2022-07-31T05:01:00;13.35;;;12.25;;
56997;SDS011;42890;44.244;22.530;2022-07-31T05:03:26;14.32;;;13.10;;
56997;SDS011;42890;44.244;22.530;2022-07-31T05:05:53;13.70;;;12.50;;
56997;SDS011;42890;44.244;22.530;2022-07-31T05:08:19;13.55;;;12.45;;
56997;SDS011;42890;44.244;22.530;2022-07-31T05:10:45;14.52;;;13.38;;
56997;SDS011;42890;44.244;22.530;2022-07-31T05:13:29;14.57;;;13.35;;
56997;SDS011;42890;44.244;22.530;2022-07-31T05:15:56;15.27;;;14.07;;
56997;SDS011;42890;44.244;22.530;2022-07-31T05:18:22;15.57;;;14.48;;
56997;SDS011;42890;44.244;22.530;2022-07-31T05:20:48;16.42;;;15.20;;
56997;SDS011;42890;44.244;22.530;2022-07-31T05:23:14;15.52;;;13.98;;
56997;SDS011;42890;44.244;22.530;2022-07-31T05:25:40;14.00;;;12.57;;
56997;SDS011;42890;44.244;22.530;2022-07-31T05:28:06;13.25;;;12.25;;
56997;SDS011;42890;44.244;22.530;2022-07-31T05:30:32;12.27;;;11.18;;
56997;SDS011;42890;44.244;22.530;2022-07-31T05:32:58;12.13;;;11.23;;
56997;SDS011;42890;44.244;22.530;2022-07-31T05:35:25;11.80;;;10.80;;
56997;SDS011;42890;44.244;22.530;2022-07-31T05:37:51;10.77;;;9.85;;
56997;SDS011;42890;44.244;22.530;2022-07-31T05:40:17;11.68;;;10.77;;
56997;SDS011;42890;44.244;22.530;2022-07-31T05:42:43;10.85;;;10.07;;
56997;SDS011;42890;44.244;22.530;2022-07-31T05:45:09;10.52;;;9.60;;
56997;SDS011;42890;44.244;22.530;2022-07-31T05:47:35;9.85;;;9.02;;
56997;SDS011;42890;44.244;22.530;2022-07-31T05:50:02;17.30;;;8.90;;
56997;SDS011;42890;44.244;22.530;2022-07-31T05:52:29;10.95;;;9.35;;
56997;SDS011;42890;44.244;22.530;2022-07-31T05:54:55;9.60;;;8.70;;
56997;SDS011;42890;44.244;22.530;2022-07-31T05:57:21;34.65;;;7.30;;
56997;SDS011;42890;44.244;22.530;2022-07-31T05:59:47;8.05;;;7.45;;
56997;SDS011;42890;44.244;22.530;2022-07-31T06:02:14;11.32;;;7.55;;
56997;SDS011;42890;44.244;22.530;2022-07-31T06:04:40;9.52;;;8.60;;
56997;SDS011;42890;44.244;22.530;2022-07-31T06:07:06;8.60;;;7.90;;
56997;SDS011;42890;44.244;22.530;2022-07-31T06:09:32;9.05;;;8.35;;
56997;SDS011;42890;44.244;22.530;2022-07-31T06:11:58;8.13;;;7.53;;
56997;SDS011;42890;44.244;22.530;2022-07-31T06:14:24;9.30;;;8.60;;
56997;SDS011;42890;44.244;22.530;2022-07-31T06:16:50;9.50;;;8.80;;
56997;SDS011;42890;44.244;22.530;2022-07-31T06:19:17;10.40;;;9.43;;
56997;SDS011;42890;44.244;22.530;2022-07-31T06:21:44;9.60;;;8.65;;
56997;SDS011;42890;44.244;22.530;2022-07-31T06:24:11;8.95;;;8.35;;
56997;SDS011;42890;44.244;22.530;2022-07-31T06:26:37;9.27;;;8.40;;
56997;SDS011;42890;44.244;22.530;2022-07-31T06:29:03;11.18;;;10.15;;
56997;SDS011;42890;44.244;22.530;2022-07-31T06:31:29;12.02;;;10.80;;
56997;SDS011;42890;44.244;22.530;2022-07-31T06:33:55;12.95;;;11.50;;
56997;SDS011;42890;44.244;22.530;2022-07-31T06:36:21;11.95;;;10.95;;
56997;SDS011;42890;44.244;22.530;2022-07-31T06:38:48;12.25;;;11.25;;
56997;SDS011;42890;44.244;22.530;2022-07-31T06:41:14;11.82;;;10.77;;
56997;SDS011;42890;44.244;22.530;2022-07-31T06:44:00;11.20;;;10.02;;
56997;SDS011;42890;44.244;22.530;2022-07-31T06:46:26;16.05;;;10.10;;
56997;SDS011;42890;44.244;22.530;2022-07-31T06:48:52;11.20;;;9.65;;
56997;SDS011;42890;44.244;22.530;2022-07-31T06:51:18;13.63;;;10.05;;
56997;SDS011;42890;44.244;22.530;2022-07-31T06:53:45;8.68;;;7.97;;
56997;SDS011;42890;44.244;22.530;2022-07-31T06:56:11;8.77;;;7.88;;
56997;SDS011;42890;44.244;22.530;2022-07-31T06:58:37;8.77;;;8.07;;
56997;SDS011;42890;44.244;22.530;2022-07-31T07:01:03;9.20;;;8.40;;
56997;SDS011;42890;44.244;22.530;2022-07-31T07:03:29;12.77;;;8.90;;
56997;SDS011;42890;44.244;22.530;2022-07-31T07:05:55;9.20;;;8.35;;
56997;SDS011;42890;44.244;22.530;2022-07-31T07:08:22;8.57;;;7.75;;
56997;SDS011;42890;44.244;22.530;2022-07-31T07:10:49;8.32;;;7.63;;
56997;SDS011;42890;44.244;22.530;2022-07-31T07:13:15;8.52;;;7.57;;
56997;SDS011;42890;44.244;22.530;2022-07-31T07:15:41;8.20;;;6.88;;
56997;SDS011;42890;44.244;22.530;2022-07-31T07:18:07;7.30;;;6.60;;
56997;SDS011;42890;44.244;22.530;2022-07-31T07:20:33;8.40;;;7.20;;
56997;SDS011;42890;44.244;22.530;2022-07-31T07:22:59;5.80;;;5.20;;
56997;SDS011;42890;44.244;22.530;2022-07-31T07:25:26;6.22;;;5.63;;
56997;SDS011;42890;44.244;22.530;2022-07-31T07:27:52;11.32;;;4.82;;
56997;SDS011;42890;44.244;22.530;2022-07-31T07:30:20;4.78;;;4.47;;
56997;SDS011;42890;44.244;22.530;2022-07-31T07:32:46;6.05;;;4.40;;
56997;SDS011;42890;44.244;22.530;2022-07-31T07:35:12;4.63;;;4.22;;
56997;SDS011;42890;44.244;22.530;2022-07-31T07:37:39;5.75;;;4.55;;
56997;SDS011;42890;44.244;22.530;2022-07-31T07:40:06;7.80;;;5.40;;
56997;SDS011;42890;44.244;22.530;2022-07-31T07:42:32;4.57;;;4.00;;
56997;SDS011;42890;44.244;22.530;2022-07-31T07:44:58;7.10;;;6.50;;
56997;SDS011;42890;44.244;22.530;2022-07-31T07:47:24;5.10;;;4.70;;
56997;SDS011;42890;44.244;22.530;2022-07-31T07:49:51;5.85;;;5.35;;
56997;SDS011;42890;44.244;22.530;2022-07-31T07:52:17;5.78;;;4.68;;
56997;SDS011;42890;44.244;22.530;2022-07-31T07:54:43;4.68;;;4.38;;
56997;SDS011;42890;44.244;22.530;2022-07-31T07:57:13;4.55;;;3.90;;
56997;SDS011;42890;44.244;22.530;2022-07-31T07:59:40;6.05;;;4.93;;
56997;SDS011;42890;44.244;22.530;2022-07-31T08:02:06;9.88;;;4.43;;
56997;SDS011;42890;44.244;22.530;2022-07-31T08:04:32;6.93;;;6.00;;
56997;SDS011;42890;44.244;22.530;2022-07-31T08:06:58;9.98;;;8.30;;
56997;SDS011;42890;44.244;22.530;2022-07-31T08:09:24;15.38;;;9.50;;
56997;SDS011;42890;44.244;22.530;2022-07-31T08:11:50;8.85;;;6.97;;
56997;SDS011;42890;44.244;22.530;2022-07-31T08:14:16;7.13;;;4.07;;
56997;SDS011;42890;44.244;22.530;2022-07-31T08:16:43;3.50;;;3.20;;
56997;SDS011;42890;44.244;22.530;2022-07-31T08:19:09;5.28;;;2.55;;
56997;SDS011;42890;44.244;22.530;2022-07-31T08:21:35;7.57;;;2.72;;
56997;SDS011;42890;44.244;22.530;2022-07-31T08:24:03;2.20;;;2.10;;
56997;SDS011;42890;44.244;22.530;2022-07-31T08:26:29;2.35;;;2.17;;
56997;SDS011;42890;44.244;22.530;2022-07-31T08:29:15;2.85;;;2.35;;
56997;SDS011;42890;44.244;22.530;2022-07-31T08:31:41;3.00;;;2.75;;
56997;SDS011;42890;44.244;22.530;2022-07-31T08:34:07;3.20;;;2.30;;
56997;SDS011;42890;44.244;22.530;2022-07-31T08:36:34;2.65;;;2.40;;
56997;SDS011;42890;44.244;22.530;2022-07-31T08:39:01;4.00;;;2.20;;
56997;SDS011;42890;44.244;22.530;2022-07-31T08:41:28;3.15;;;2.58;;
56997;SDS011;42890;44.244;22.530;2022-07-31T08:43:54;19.33;;;17.92;;
56997;SDS011;42890;44.244;22.530;2022-07-31T08:46:21;5.43;;;2.55;;
56997;SDS011;42890;44.244;22.530;2022-07-31T08:48:47;3.33;;;2.40;;
56997;SDS011;42890;44.244;22.530;2022-07-31T08:51:17;7.82;;;2.50;;
56997;SDS011;42890;44.244;22.530;2022-07-31T08:53:43;4.65;;;2.17;;
56997;SDS011;42890;44.244;22.530;2022-07-31T08:56:10;2.22;;;2.10;;
56997;SDS011;42890;44.244;22.530;2022-07-31T08:58:36;3.78;;;2.20;;
56997;SDS011;42890;44.244;22.530;2022-07-31T09:01:03;3.03;;;2.67;;
56997;SDS011;42890;44.244;22.530;2022-07-31T09:03:29;5.80;;;2.83;;
56997;SDS011;42890;44.244;22.530;2022-07-31T09:05:55;2.50;;;2.30;;
56997;SDS011;42890;44.244;22.530;2022-07-31T09:08:21;2.50;;;2.30;;
56997;SDS011;42890;44.244;22.530;2022-07-31T09:10:48;2.65;;;2.45;;
56997;SDS011;42890;44.244;22.530;2022-07-31T09:13:15;4.68;;;2.65;;
56997;SDS011;42890;44.244;22.530;2022-07-31T09:15:42;2.45;;;2.25;;
56997;SDS011;42890;44.244;22.530;2022-07-31T09:18:18;2.70;;;2.50;;
56997;SDS011;42890;44.244;22.530;2022-07-31T09:21:02;2.88;;;2.45;;
56997;SDS011;42890;44.244;22.530;2022-07-31T09:23:29;2.72;;;2.53;;
56997;SDS011;42890;44.244;22.530;2022-07-31T09:25:59;4.35;;;2.80;;
56997;SDS011;42890;44.244;22.530;2022-07-31T09:28:36;2.75;;;2.55;;
56997;SDS011;42890;44.244;22.530;2022-07-31T09:31:03;4.32;;;2.75;;
56997;SDS011;42890;44.244;22.530;2022-07-31T09:33:30;2.55;;;2.35;;
56997;SDS011;42890;44.244;22.530;2022-07-31T09:35:57;2.20;;;2.10;;
56997;SDS011;42890;44.244;22.530;2022-07-31T09:38:31;2.33;;;2.10;;
56997;SDS011;42890;44.244;22.530;2022-07-31T09:43:53;4.57;;;2.10;;
56997;SDS011;42890;44.244;22.530;2022-07-31T09:46:20;3.83;;;3.53;;
56997;SDS011;42890;44.244;22.530;2022-07-31T09:48:49;7.47;;;2.92;;
56997;SDS011;42890;44.244;22.530;2022-07-31T09:51:16;2.85;;;2.65;;
56997;SDS011;42890;44.244;22.530;2022-07-31T09:53:43;3.72;;;2.97;;
56997;SDS011;42890;44.244;22.530;2022-07-31T09:58:40;3.33;;;2.30;;
56997;SDS011;42890;44.244;22.530;2022-07-31T10:01:10;3.65;;;2.30;;
56997;SDS011;42890;44.244;22.530;2022-07-31T10:03:38;2.40;;;2.20;;
56997;SDS011;42890;44.244;22.530;2022-07-31T10:06:05;2.92;;;2.28;;
56997;SDS011;42890;44.244;22.530;2022-07-31T10:08:34;2.88;;;2.30;;
56997;SDS011;42890;44.244;22.530;2022-07-31T10:11:03;3.00;;;2.70;;
56997;SDS011;42890;44.244;22.530;2022-07-31T10:13:34;2.30;;;2.10;;
56997;SDS011;42890;44.244;22.530;2022-07-31T10:16:01;7.57;;;2.30;;
56997;SDS011;42890;44.244;22.530;2022-07-31T10:18:29;2.40;;;1.95;;
56997;SDS011;42890;44.244;22.530;2022-07-31T10:20:56;7.53;;;2.20;;
56997;SDS011;42890;44.244;22.530;2022-07-31T10:23:24;2.97;;;2.20;;
56997;SDS011;42890;44.244;22.530;2022-07-31T10:25:55;2.17;;;1.95;;
56997;SDS011;42890;44.244;22.530;2022-07-31T10:28:22;2.63;;;2.10;;
56997;SDS011;42890;44.244;22.530;2022-07-31T10:30:48;2.60;;;2.40;;
56997;SDS011;42890;44.244;22.530;2022-07-31T10:33:15;2.47;;;2.20;;
56997;SDS011;42890;44.244;22.530;2022-07-31T10:35:43;3.58;;;2.10;;
56997;SDS011;42890;44.244;22.530;2022-07-31T10:38:14;1.80;;;1.65;;
56997;SDS011;42890;44.244;22.530;2022-07-31T10:40:43;6.13;;;1.95;;
56997;SDS011;42890;44.244;22.530;2022-07-31T10:43:16;2.03;;;1.77;;
56997;SDS011;42890;44.244;22.530;2022-07-31T10:45:47;2.40;;;2.15;;
56997;SDS011;42890;44.244;22.530;2022-07-31T10:48:13;2.97;;;2.20;;
56997;SDS011;42890;44.244;22.530;2022-07-31T10:50:40;4.55;;;2.03;;
56997;SDS011;42890;44.244;22.530;2022-07-31T10:53:07;2.42;;;2.08;;
56997;SDS011;42890;44.244;22.530;2022-07-31T10:55:33;2.10;;;2.00;;
56997;SDS011;42890;44.244;22.530;2022-07-31T10:58:10;2.30;;;2.10;;
56997;SDS011;42890;44.244;22.530;2022-07-31T11:00:36;4.00;;;2.15;;
56997;SDS011;42890;44.244;22.530;2022-07-31T11:03:13;2.10;;;1.90;;
56997;SDS011;42890;44.244;22.530;2022-07-31T11:05:39;2.35;;;1.90;;
56997;SDS011;42890;44.244;22.530;2022-07-31T11:08:16;2.45;;;2.20;;
56997;SDS011;42890;44.244;22.530;2022-07-31T11:10:47;2.47;;;2.03;;
56997;SDS011;42890;44.244;22.530;2022-07-31T11:13:14;2.30;;;2.13;;
56997;SDS011;42890;44.244;22.530;2022-07-31T11:15:41;2.67;;;2.45;;
56997;SDS011;42890;44.244;22.530;2022-07-31T11:18:14;4.93;;;2.10;;
56997;SDS011;42890;44.244;22.530;2022-07-31T11:20:41;2.53;;;2.10;;
56997;SDS011;42890;44.244;22.530;2022-07-31T11:23:10;3.83;;;2.25;;
56997;SDS011;42890;44.244;22.530;2022-07-31T11:25:39;2.97;;;1.83;;
56997;SDS011;42890;44.244;22.530;2022-07-31T11:28:12;2.67;;;1.85;;
56997;SDS011;42890;44.244;22.530;2022-07-31T11:30:47;2.75;;;2.55;;
56997;SDS011;42890;44.244;22.530;2022-07-31T11:33:14;3.03;;;2.30;;
56997;SDS011;42890;44.244;22.530;2022-07-31T11:35:40;2.63;;;2.40;;
56997;SDS011;42890;44.244;22.530;2022-07-31T11:38:06;4.20;;;2.38;;
56997;SDS011;42890;44.244;22.530;2022-07-31T11:40:32;2.47;;;2.28;;
56997;SDS011;42890;44.244;22.530;2022-07-31T11:42:59;2.28;;;2.15;;
56997;SDS011;42890;44.244;22.530;2022-07-31T11:45:25;2.83;;;2.63;;
56997;SDS011;42890;44.244;22.530;2022-07-31T11:47:51;3.60;;;2.80;;
56997;SDS011;42890;44.244;22.530;2022-07-31T11:50:19;3.45;;;3.15;;
56997;SDS011;42890;44.244;22.530;2022-07-31T11:52:46;3.53;;;3.22;;
56997;SDS011;42890;44.244;22.530;2022-07-31T11:55:13;4.15;;;3.20;;
56997;SDS011;42890;44.244;22.530;2022-07-31T11:57:39;3.42;;;3.22;;
56997;SDS011;42890;44.244;22.530;2022-07-31T12:00:08;3.35;;;3.15;;
56997;SDS011;42890;44.244;22.530;2022-07-31T12:02:38;3.50;;;3.20;;
56997;SDS011;42890;44.244;22.530;2022-07-31T12:05:04;7.07;;;3.53;;
56997;SDS011;42890;44.244;22.530;2022-07-31T12:07:31;5.18;;;4.00;;
56997;SDS011;42890;44.244;22.530;2022-07-31T12:09:57;3.70;;;3.40;;
56997;SDS011;42890;44.244;22.530;2022-07-31T12:12:24;3.42;;;3.15;;
56997;SDS011;42890;44.244;22.530;2022-07-31T12:14:50;4.30;;;3.70;;
56997;SDS011;42890;44.244;22.530;2022-07-31T12:17:20;5.15;;;3.22;;
56997;SDS011;42890;44.244;22.530;2022-07-31T12:19:46;6.40;;;3.40;;
56997;SDS011;42890;44.244;22.530;2022-07-31T12:22:16;5.10;;;3.15;;
56997;SDS011;42890;44.244;22.530;2022-07-31T12:24:43;3.40;;;3.05;;
56997;SDS011;42890;44.244;22.530;2022-07-31T12:27:18;3.42;;;3.15;;
56997;SDS011;42890;44.244;22.530;2022-07-31T12:29:44;3.15;;;2.90;;
56997;SDS011;42890;44.244;22.530;2022-07-31T12:32:10;4.50;;;3.00;;
56997;SDS011;42890;44.244;22.530;2022-07-31T12:34:40;2.97;;;2.53;;
56997;SDS011;42890;44.244;22.530;2022-07-31T12:37:07;14.52;;;2.72;;
56997;SDS011;42890;44.244;22.530;2022-07-31T12:39:37;2.50;;;2.30;;
56997;SDS011;42890;44.244;22.530;2022-07-31T12:42:04;6.00;;;2.80;;
56997;SDS011;42890;44.244;22.530;2022-07-31T12:44:31;3.65;;;2.70;;
56997;SDS011;42890;44.244;22.530;2022-07-31T12:46:57;2.45;;;2.28;;
56997;SDS011;42890;44.244;22.530;2022-07-31T12:49:23;2.95;;;2.75;;
56997;SDS011;42890;44.244;22.530;2022-07-31T12:51:49;3.22;;;2.55;;
56997;SDS011;42890;44.244;22.530;2022-07-31T12:54:16;4.60;;;2.67;;
56997;SDS011;42890;44.244;22.530;2022-07-31T12:56:43;5.35;;;2.75;;
56997;SDS011;42890;44.244;22.530;2022-07-31T12:59:09;5.97;;;2.70;;
56997;SDS011;42890;44.244;22.530;2022-07-31T13:01:36;4.03;;;2.47;;
56997;SDS011;42890;44.244;22.530;2022-07-31T13:04:02;2.80;;;2.13;;
56997;SDS011;42890;44.244;22.530;2022-07-31T13:06:30;4.80;;;2.17;;
56997;SDS011;42890;44.244;22.530;2022-07-31T13:08:56;6.10;;;2.47;;
56997;SDS011;42890;44.244;22.530;2022-07-31T13:11:23;2.83;;;2.22;;
56997;SDS011;42890;44.244;22.530;2022-07-31T13:13:49;2.10;;;1.98;;
56997;SDS011;42890;44.244;22.530;2022-07-31T13:16:16;2.28;;;2.08;;
56997;SDS011;42890;44.244;22.530;2022-07-31T13:18:42;2.67;;;1.92;;
56997;SDS011;42890;44.244;22.530;2022-07-31T13:21:08;2.72;;;2.17;;
56997;SDS011;42890;44.244;22.530;2022-07-31T13:23:34;2.72;;;2.10;;
56997;SDS011;42890;44.244;22.530;2022-07-31T13:26:00;2.10;;;1.88;;
56997;SDS011;42890;44.244;22.530;2022-07-31T13:28:27;3.05;;;2.10;;
56997;SDS011;42890;44.244;22.530;2022-07-31T13:30:53;1.90;;;1.80;;
56997;SDS011;42890;44.244;22.530;2022-07-31T13:33:19;3.08;;;1.80;;
56997;SDS011;42890;44.244;22.530;2022-07-31T13:35:45;1.80;;;1.70;;
56997;SDS011;42890;44.244;22.530;2022-07-31T13:38:11;2.72;;;2.15;;
56997;SDS011;42890;44.244;22.530;2022-07-31T13:40:38;2.45;;;1.70;;
56997;SDS011;42890;44.244;22.530;2022-07-31T13:43:23;2.28;;;1.95;;
56997;SDS011;42890;44.244;22.530;2022-07-31T13:45:49;2.15;;;1.95;;
56997;SDS011;42890;44.244;22.530;2022-07-31T13:48:15;2.67;;;2.00;;
56997;SDS011;42890;44.244;22.530;2022-07-31T13:50:42;3.33;;;1.90;;
56997;SDS011;42890;44.244;22.530;2022-07-31T13:53:08;4.57;;;1.67;;
56997;SDS011;42890;44.244;22.530;2022-07-31T13:55:34;4.22;;;2.03;;
56997;SDS011;42890;44.244;22.530;2022-07-31T13:58:00;4.10;;;1.67;;
56997;SDS011;42890;44.244;22.530;2022-07-31T14:00:27;2.17;;;1.83;;
56997;SDS011;42890;44.244;22.530;2022-07-31T14:02:53;1.67;;;1.58;;
56997;SDS011;42890;44.244;22.530;2022-07-31T14:05:19;2.13;;;1.90;;
56997;SDS011;42890;44.244;22.530;2022-07-31T14:07:45;3.75;;;2.10;;
56997;SDS011;42890;44.244;22.530;2022-07-31T14:10:11;2.45;;;2.00;;
56997;SDS011;42890;44.244;22.530;2022-07-31T14:12:38;2.78;;;1.75;;
56997;SDS011;42890;44.244;22.530;2022-07-31T14:15:05;3.38;;;1.80;;
56997;SDS011;42890;44.244;22.530;2022-07-31T14:17:31;2.75;;;1.90;;
56997;SDS011;42890;44.244;22.530;2022-07-31T14:19:57;2.80;;;2.03;;
56997;SDS011;42890;44.244;22.530;2022-07-31T14:22:23;2.00;;;1.70;;
56997;SDS011;42890;44.244;22.530;2022-07-31T14:24:50;1.85;;;1.75;;
56997;SDS011;42890;44.244;22.530;2022-07-31T14:27:16;2.00;;;1.80;;
56997;SDS011;42890;44.244;22.530;2022-07-31T14:29:42;3.45;;;2.00;;
56997;SDS011;42890;44.244;22.530;2022-07-31T14:32:08;2.40;;;2.20;;
56997;SDS011;42890;44.244;22.530;2022-07-31T14:34:35;4.22;;;2.60;;
56997;SDS011;42890;44.244;22.530;2022-07-31T14:37:01;5.30;;;1.90;;
56997;SDS011;42890;44.244;22.530;2022-07-31T14:39:27;3.90;;;1.77;;
56997;SDS011;42890;44.244;22.530;2022-07-31T14:41:53;3.78;;;1.80;;